createdAt,value
2019-02-28T00:01:34.913Z,4.50
2019-02-28T00:04:08.828Z,4.70
2019-02-28T00:06:38.711Z,4.50
2019-02-28T00:09:09.883Z,4.30
2019-02-28T00:11:42.075Z,4.30
2019-02-28T00:14:12.112Z,4.30
2019-02-28T00:16:42.032Z,4.20
2019-02-28T00:19:11.991Z,4.10
2019-02-28T00:21:42.001Z,4.10
2019-02-28T00:24:12.035Z,4.00
2019-02-28T00:26:47.658Z,4.10
2019-02-28T00:29:16.272Z,4.00
2019-02-28T00:31:49.443Z,3.90
2019-02-28T00:34:17.836Z,3.80
2019-02-28T00:36:50.460Z,4.00
2019-02-28T00:39:19.310Z,4.10
2019-02-28T00:41:49.243Z,4.20
2019-02-28T00:44:19.244Z,4.50
2019-02-28T00:46:49.285Z,4.70
2019-02-28T00:49:19.284Z,5.00
2019-02-28T00:51:49.204Z,5.30
2019-02-28T00:54:19.172Z,5.40
2019-02-28T00:56:52.484Z,5.50
2019-02-28T00:59:20.673Z,5.50
2019-02-28T01:01:51.716Z,5.50
2019-02-28T01:04:21.629Z,5.40
2019-02-28T01:06:52.793Z,5.20
2019-02-28T01:09:22.802Z,5.00
2019-02-28T01:11:52.750Z,4.70
2019-02-28T01:14:22.645Z,4.70
2019-02-28T01:16:53.056Z,4.50
2019-02-28T01:19:23.631Z,4.50
2019-02-28T01:21:55.389Z,4.50
2019-02-28T01:24:25.031Z,4.60
2019-02-28T01:26:54.998Z,4.60
2019-02-28T01:29:24.955Z,4.60
2019-02-28T01:31:54.883Z,4.70
2019-02-28T01:34:29.068Z,4.70
2019-02-28T01:36:57.909Z,4.60
2019-02-28T01:39:29.958Z,4.50
2019-02-28T01:41:59.404Z,4.50
2019-02-28T01:44:29.389Z,4.50
2019-02-28T01:46:59.349Z,4.50
2019-02-28T01:49:29.238Z,4.40
2019-02-28T01:51:59.805Z,4.30
2019-02-28T01:54:29.744Z,4.40
2019-02-28T01:56:59.752Z,4.50
2019-02-28T01:59:30.716Z,4.80
2019-02-28T02:02:05.710Z,5.10
2019-02-28T02:04:32.177Z,5.40
2019-02-28T02:07:10.673Z,5.60
2019-02-28T02:09:45.734Z,5.70
2019-02-28T02:12:12.396Z,5.80
2019-02-28T02:14:44.646Z,5.90
2019-02-28T02:17:13.889Z,5.90
2019-02-28T02:19:43.832Z,6.00
2019-02-28T02:22:13.705Z,5.90
2019-02-28T02:24:43.584Z,5.90
2019-02-28T02:27:16.252Z,5.80
2019-02-28T02:29:44.993Z,5.80
2019-02-28T02:32:15.034Z,5.70
2019-02-28T02:34:45.005Z,5.70
2019-02-28T02:37:14.937Z,5.50
2019-02-28T02:39:50.077Z,5.30
2019-02-28T02:42:16.820Z,5.20
2019-02-28T02:44:46.826Z,5.20
2019-02-28T02:47:17.851Z,5.30
2019-02-28T02:49:56.115Z,5.30
2019-02-28T02:52:25.902Z,5.40
2019-02-28T02:54:52.240Z,5.40
2019-02-28T02:57:22.305Z,5.30
2019-02-28T02:59:52.272Z,5.30
2019-02-28T03:02:22.821Z,5.30
2019-02-28T03:04:57.957Z,5.30
2019-02-28T03:07:24.977Z,5.20
2019-02-28T03:09:59.233Z,5.00
2019-02-28T03:12:31.196Z,5.00
2019-02-28T03:15:00.787Z,4.90
2019-02-28T03:17:30.665Z,4.80
2019-02-28T03:20:00.755Z,4.70
2019-02-28T03:22:30.595Z,4.50
2019-02-28T03:25:00.482Z,4.50
2019-02-28T03:27:30.249Z,4.30
2019-02-28T03:30:00.402Z,4.00
2019-02-28T03:32:39.766Z,3.90
2019-02-28T03:35:01.866Z,3.50
2019-02-28T03:37:33.086Z,3.30
2019-02-28T03:40:05.249Z,3.30
2019-02-28T03:42:35.076Z,3.10
2019-02-28T03:45:07.702Z,3.00
2019-02-28T03:47:37.673Z,2.90
2019-02-28T03:50:08.834Z,3.10
2019-02-28T03:52:44.064Z,3.30
2019-02-28T03:55:15.069Z,3.40
2019-02-28T03:57:46.309Z,3.30
2019-02-28T04:00:18.876Z,3.40
2019-02-28T04:02:56.699Z,3.40
2019-02-28T04:05:26.788Z,3.50
2019-02-28T04:07:53.456Z,3.60
2019-02-28T04:10:23.233Z,3.40
2019-02-28T04:12:53.156Z,3.30
2019-02-28T04:15:23.186Z,3.50
2019-02-28T04:17:53.072Z,3.50
2019-02-28T04:20:22.945Z,3.70
2019-02-28T04:22:58.552Z,3.80
2019-02-28T04:25:24.577Z,3.80
2019-02-28T04:27:54.626Z,3.90
2019-02-28T04:30:24.505Z,3.90
2019-02-28T04:32:54.306Z,4.00
2019-02-28T04:35:25.403Z,4.20
2019-02-28T04:37:55.596Z,4.30
2019-02-28T04:40:26.966Z,4.20
2019-02-28T04:42:57.029Z,4.00
2019-02-28T04:45:27.066Z,3.80
2019-02-28T04:47:56.917Z,3.60
2019-02-28T04:50:31.322Z,3.70
2019-02-28T04:52:58.314Z,3.70
2019-02-28T04:55:28.187Z,3.80
2019-02-28T04:57:58.036Z,3.80
2019-02-28T05:00:27.871Z,4.20
2019-02-28T05:02:57.787Z,4.40
2019-02-28T05:05:29.107Z,4.90
2019-02-28T05:08:04.532Z,5.60
2019-02-28T05:10:30.507Z,5.90
2019-02-28T05:13:00.433Z,6.10
2019-02-28T05:15:30.316Z,6.30
2019-02-28T05:18:00.146Z,6.30
2019-02-28T05:20:29.987Z,6.40
2019-02-28T05:23:02.666Z,6.40
2019-02-28T05:25:31.347Z,6.50
2019-02-28T05:28:01.187Z,6.50
2019-02-28T05:30:31.027Z,6.40
2019-02-28T05:33:00.909Z,6.30
2019-02-28T05:35:31.793Z,6.20
2019-02-28T05:38:01.624Z,6.20
2019-02-28T05:40:31.425Z,6.10
2019-02-28T05:43:01.348Z,6.10
2019-02-28T05:45:31.245Z,6.10
2019-02-28T05:48:03.874Z,6.00
2019-02-28T05:50:32.669Z,6.10
2019-02-28T05:53:03.069Z,6.20
2019-02-28T05:55:33.068Z,6.10
2019-02-28T05:58:02.925Z,6.20
2019-02-28T06:00:33.431Z,6.20
2019-02-28T06:03:04.321Z,6.30
2019-02-28T06:05:34.186Z,6.30
2019-02-28T06:08:04.284Z,6.40
2019-02-28T06:10:34.273Z,6.40
2019-02-28T06:13:04.158Z,6.50
2019-02-28T06:15:34.191Z,6.60
2019-02-28T06:18:06.955Z,6.60
2019-02-28T06:20:36.789Z,6.60
2019-02-28T06:23:09.372Z,6.70
2019-02-28T06:25:39.673Z,6.80
2019-02-28T06:28:12.828Z,6.90
2019-02-28T06:30:42.785Z,7.20
2019-02-28T06:33:25.988Z,7.70
2019-02-28T06:36:04.534Z,8.10
2019-02-28T06:38:33.755Z,8.40
2019-02-28T06:41:07.592Z,8.80
2019-02-28T06:43:38.351Z,9.10
2019-02-28T06:46:08.717Z,9.20
2019-02-28T06:48:39.667Z,9.40
2019-02-28T06:51:09.670Z,9.60
2019-02-28T06:53:42.791Z,9.70
2019-02-28T06:56:12.789Z,10.00
2019-02-28T06:58:42.804Z,10.50
2019-02-28T07:01:12.949Z,10.70
2019-02-28T07:03:43.068Z,10.60
2019-02-28T07:06:13.237Z,10.90
2019-02-28T07:08:44.668Z,11.30
2019-02-28T07:11:14.736Z,11.40
2019-02-28T07:13:46.549Z,11.50
2019-02-28T07:16:16.547Z,11.30
2019-02-28T07:18:52.821Z,11.40
2019-02-28T07:21:19.508Z,11.20
2019-02-28T07:23:53.274Z,11.50
2019-02-28T07:26:25.059Z,11.70
2019-02-28T07:28:55.107Z,11.60
2019-02-28T07:31:25.541Z,11.70
2019-02-28T07:33:56.507Z,12.10
2019-02-28T07:36:26.875Z,12.40
2019-02-28T07:39:01.189Z,12.30
2019-02-28T07:41:29.548Z,12.60
2019-02-28T07:43:59.693Z,13.10
2019-02-28T07:46:32.228Z,13.20
2019-02-28T07:49:02.587Z,13.60
2019-02-28T07:51:34.206Z,13.50
2019-02-28T07:54:07.108Z,13.50
2019-02-28T07:56:42.705Z,13.70
2019-02-28T07:59:10.428Z,13.80
2019-02-28T08:01:41.908Z,14.30
2019-02-28T08:04:18.068Z,14.90
2019-02-28T08:06:45.227Z,15.30
2019-02-28T08:09:30.207Z,15.50
2019-02-28T08:12:00.285Z,16.10
2019-02-28T08:14:33.336Z,15.70
2019-02-28T08:17:05.425Z,15.70
2019-02-28T08:19:36.588Z,16.40
2019-02-28T08:22:06.668Z,16.50
2019-02-28T08:24:38.413Z,16.90
2019-02-28T08:27:10.627Z,16.60
2019-02-28T08:29:44.785Z,16.30
2019-02-28T08:32:13.910Z,15.90
2019-02-28T08:34:46.826Z,16.20
2019-02-28T08:37:20.210Z,17.20
2019-02-28T08:39:51.801Z,17.70
2019-02-28T08:42:21.828Z,17.10
2019-02-28T08:44:57.803Z,17.60
2019-02-28T08:47:23.629Z,17.70
2019-02-28T08:49:58.908Z,17.30
2019-02-28T08:52:27.832Z,17.30
2019-02-28T08:55:06.704Z,16.60
2019-02-28T08:57:36.948Z,16.90
2019-02-28T09:00:13.868Z,17.50
2019-02-28T09:02:52.772Z,18.00
2019-02-28T09:05:17.868Z,18.10
2019-02-28T09:07:51.341Z,17.70
2019-02-28T09:10:21.868Z,17.70
2019-02-28T09:12:52.339Z,17.40
2019-02-28T09:15:23.110Z,17.40
2019-02-28T09:17:58.217Z,17.80
2019-02-28T09:20:32.947Z,18.00
2019-02-28T09:23:04.068Z,17.90
2019-02-28T09:25:41.686Z,18.30
2019-02-28T09:28:16.752Z,17.90
2019-02-28T09:30:49.910Z,17.40
2019-02-28T09:33:23.218Z,17.90
2019-02-28T09:35:52.227Z,18.20
2019-02-28T09:38:23.108Z,18.40
2019-02-28T09:41:01.341Z,18.40
2019-02-28T09:43:32.787Z,19.40
2019-02-28T09:46:03.068Z,19.50
2019-02-28T09:48:37.299Z,17.90
2019-02-28T09:51:10.332Z,17.00
2019-02-28T09:53:41.307Z,16.70
2019-02-28T09:56:12.588Z,17.00
2019-02-28T09:58:43.388Z,17.00
2019-02-28T10:01:14.227Z,17.30
2019-02-28T10:03:44.230Z,17.10
2019-02-28T10:06:16.430Z,17.50
2019-02-28T10:08:47.307Z,18.20
2019-02-28T10:11:18.708Z,18.90
2019-02-28T10:13:49.491Z,20.50
2019-02-28T10:16:22.230Z,20.60
2019-02-28T10:18:52.988Z,19.40
2019-02-28T10:21:26.748Z,18.70
2019-02-28T10:23:57.923Z,18.10
2019-02-28T10:26:32.107Z,17.90
2019-02-28T10:29:08.477Z,17.90
2019-02-28T10:31:40.549Z,17.60
2019-02-28T10:34:10.711Z,17.40
2019-02-28T10:36:40.751Z,16.70
2019-02-28T10:39:11.872Z,16.20
2019-02-28T10:41:43.219Z,16.40
2019-02-28T10:44:13.628Z,16.30
2019-02-28T10:46:43.908Z,16.30
2019-02-28T10:49:14.028Z,17.10
2019-02-28T10:51:48.894Z,17.60
2019-02-28T10:54:17.995Z,18.00
2019-02-28T10:56:48.788Z,17.70
2019-02-28T10:59:21.369Z,18.10
2019-02-28T11:01:50.752Z,18.50
2019-02-28T11:04:20.831Z,19.40
2019-02-28T11:06:50.829Z,20.30
2019-02-28T11:09:25.222Z,20.80
2019-02-28T11:11:53.348Z,20.60
2019-02-28T11:14:23.468Z,19.60
2019-02-28T11:16:58.879Z,19.40
2019-02-28T11:19:25.835Z,19.30
2019-02-28T11:21:56.191Z,19.30
2019-02-28T11:24:27.071Z,20.30
2019-02-28T11:26:58.193Z,20.40
2019-02-28T11:29:29.032Z,20.50
2019-02-28T11:32:02.468Z,20.20
2019-02-28T11:34:34.347Z,19.40
2019-02-28T11:37:05.499Z,19.00
2019-02-28T11:39:38.868Z,19.10
2019-02-28T11:42:10.869Z,18.70
2019-02-28T11:44:43.573Z,18.00
2019-02-28T11:47:13.513Z,17.90
2019-02-28T11:49:43.783Z,17.50
2019-02-28T11:52:15.949Z,17.60
2019-02-28T11:54:46.108Z,17.10
2019-02-28T11:57:20.691Z,16.80
2019-02-28T11:59:51.937Z,16.70
2019-02-28T12:02:22.427Z,16.70
2019-02-28T12:04:54.188Z,17.30
2019-02-28T12:07:25.543Z,17.90
2019-02-28T12:09:56.147Z,18.50
2019-02-28T12:12:30.616Z,18.60
2019-02-28T12:15:02.686Z,18.20
2019-02-28T12:17:33.027Z,18.50
2019-02-28T12:20:03.899Z,18.70
2019-02-28T12:22:35.828Z,18.60
2019-02-28T12:25:09.347Z,19.00
2019-02-28T12:27:39.830Z,19.40
2019-02-28T12:30:14.792Z,19.70
2019-02-28T12:32:48.469Z,20.20
2019-02-28T12:35:20.790Z,20.50
2019-02-28T12:37:53.925Z,20.10
2019-02-28T12:40:31.228Z,19.20
2019-02-28T12:43:01.948Z,19.70
2019-02-28T12:45:36.267Z,20.50
2019-02-28T12:48:08.833Z,20.50
2019-02-28T12:50:38.987Z,20.30
2019-02-28T12:53:09.311Z,20.40
2019-02-28T12:55:40.788Z,20.80
2019-02-28T12:58:11.107Z,20.90
2019-02-28T13:00:46.837Z,20.70
2019-02-28T13:03:21.155Z,20.60
2019-02-28T13:05:49.908Z,19.60
2019-02-28T13:08:21.827Z,19.80
2019-02-28T13:10:51.995Z,20.40
2019-02-28T13:13:27.622Z,20.80
2019-02-28T13:15:53.603Z,20.30
2019-02-28T13:18:24.362Z,20.20
2019-02-28T13:20:57.163Z,20.00
2019-02-28T13:23:27.486Z,20.20
2019-02-28T13:26:00.198Z,19.20
2019-02-28T13:28:31.690Z,19.30
2019-02-28T13:31:04.767Z,19.50
2019-02-28T13:33:34.891Z,19.40
2019-02-28T13:36:05.007Z,19.10
2019-02-28T13:38:36.766Z,19.30
2019-02-28T13:41:10.815Z,19.20
2019-02-28T13:43:44.327Z,18.80
2019-02-28T13:46:17.495Z,19.30
2019-02-28T13:48:50.500Z,19.10
2019-02-28T13:51:22.568Z,19.10
2019-02-28T13:53:56.518Z,18.70
2019-02-28T13:56:29.093Z,19.10
2019-02-28T13:59:00.571Z,19.10
2019-02-28T14:01:32.390Z,18.70
2019-02-28T14:04:04.050Z,18.80
2019-02-28T14:06:34.007Z,18.50
2019-02-28T14:09:05.228Z,17.90
2019-02-28T14:11:37.125Z,17.60
2019-02-28T14:14:07.782Z,17.80
2019-02-28T14:16:38.009Z,17.90
2019-02-28T14:19:08.647Z,18.20
2019-02-28T14:21:39.449Z,18.50
2019-02-28T14:24:09.646Z,17.70
2019-02-28T14:26:42.882Z,17.30
2019-02-28T14:29:11.696Z,16.50
2019-02-28T14:31:41.807Z,16.30
2019-02-28T14:34:11.925Z,16.30
2019-02-28T14:36:45.098Z,16.30
2019-02-28T14:39:13.682Z,16.50
2019-02-28T14:41:45.967Z,16.70
2019-02-28T14:44:16.330Z,17.00
2019-02-28T14:46:49.846Z,17.80
2019-02-28T14:49:24.126Z,18.00
2019-02-28T14:54:39.558Z,17.50
2019-02-28T14:57:13.466Z,17.10
2019-02-28T14:59:44.967Z,16.60
2019-02-28T15:02:19.072Z,16.20
2019-02-28T15:04:52.118Z,16.20
2019-02-28T15:07:23.167Z,15.80
2019-02-28T15:09:54.926Z,15.90
2019-02-28T15:12:25.528Z,15.70
2019-02-28T15:14:55.558Z,15.70
2019-02-28T15:17:25.422Z,15.50
2019-02-28T15:19:58.124Z,15.30
2019-02-28T15:22:28.568Z,15.20
2019-02-28T15:24:58.799Z,15.00
2019-02-28T15:27:29.087Z,15.10
2019-02-28T15:29:59.841Z,14.90
2019-02-28T15:32:33.247Z,14.80
2019-02-28T15:35:08.527Z,14.50
2019-02-28T15:37:39.806Z,14.30
2019-02-28T15:40:21.564Z,14.00
2019-02-28T15:42:53.008Z,14.00
2019-02-28T15:45:23.447Z,13.90
2019-02-28T15:47:59.130Z,13.80
2019-02-28T15:50:31.567Z,13.70
2019-02-28T15:53:01.891Z,13.60
2019-02-28T15:55:35.237Z,13.50
2019-02-28T15:58:06.796Z,13.40
2019-02-28T16:00:37.962Z,13.30
2019-02-28T16:03:08.194Z,13.40
2019-02-28T16:05:42.706Z,13.30
2019-02-28T16:08:10.824Z,13.20
2019-02-28T16:10:52.643Z,13.10
2019-02-28T16:13:15.673Z,13.10
2019-02-28T16:15:50.006Z,13.10
2019-02-28T16:18:18.998Z,13.00
2019-02-28T16:20:49.725Z,13.00
2019-02-28T16:23:23.569Z,13.00
2019-02-28T16:25:52.075Z,12.90
2019-02-28T16:28:22.514Z,12.80
2019-02-28T16:30:52.914Z,12.70
2019-02-28T16:33:24.733Z,12.60
2019-02-28T16:35:55.315Z,12.60
2019-02-28T16:38:26.955Z,12.60
2019-02-28T16:40:57.608Z,12.50
2019-02-28T16:43:29.274Z,12.50
2019-02-28T16:45:59.593Z,12.50
2019-02-28T16:48:33.442Z,12.40
2019-02-28T16:51:02.469Z,12.30
2019-02-28T16:53:32.754Z,12.30
2019-02-28T16:56:05.659Z,12.30
2019-02-28T16:58:39.277Z,12.20
2019-02-28T17:01:10.638Z,12.30
2019-02-28T17:03:41.783Z,12.20
2019-02-28T17:06:12.794Z,12.20
2019-02-28T17:08:44.633Z,12.10
2019-02-28T17:11:18.324Z,12.10
2019-02-28T17:13:49.234Z,12.00
2019-02-28T17:16:21.147Z,12.00
2019-02-28T17:18:53.571Z,11.90
2019-02-28T17:21:26.694Z,11.90
2019-02-28T17:24:00.196Z,11.80
2019-02-28T17:26:34.433Z,11.80
2019-02-28T17:29:06.473Z,11.70
2019-02-28T17:31:48.165Z,11.80
2019-02-28T17:34:23.774Z,11.70
2019-02-28T17:36:53.179Z,11.70
2019-02-28T17:39:28.948Z,11.70
2019-02-28T17:42:08.126Z,11.70
2019-02-28T17:44:53.233Z,11.70
2019-02-28T17:47:33.120Z,11.70
2019-02-28T17:50:24.105Z,11.70
2019-02-28T17:53:00.600Z,11.60
2019-02-28T17:55:51.354Z,11.50
2019-02-28T17:58:49.314Z,11.50
2019-02-28T18:01:47.280Z,11.50
2019-02-28T18:04:57.220Z,11.50
2019-02-28T18:07:43.478Z,11.50
2019-02-28T18:10:16.476Z,11.40
2019-02-28T18:12:59.250Z,11.40
2019-02-28T18:15:48.633Z,11.30
2019-02-28T18:18:33.837Z,11.30
2019-02-28T18:21:32.034Z,11.20
2019-02-28T18:24:08.393Z,11.20
2019-02-28T18:27:15.917Z,11.20
2019-02-28T18:30:09.080Z,11.10
2019-02-28T18:33:06.560Z,11.00
2019-02-28T18:35:32.562Z,10.90
2019-02-28T18:38:03.712Z,10.90
2019-02-28T18:40:49.554Z,10.80
2019-02-28T18:43:20.033Z,10.80
2019-02-28T18:45:59.234Z,10.70
2019-02-28T18:48:30.273Z,10.70
2019-02-28T18:51:01.675Z,10.60
2019-02-28T18:53:32.032Z,10.60
2019-02-28T18:56:07.633Z,10.60
2019-02-28T18:58:39.780Z,10.70
2019-02-28T19:01:12.585Z,10.60
2019-02-28T19:03:43.125Z,10.50
2019-02-28T19:06:15.074Z,10.50
2019-02-28T19:08:52.409Z,10.40
2019-02-28T19:11:23.192Z,10.30
2019-02-28T19:13:53.675Z,10.30
2019-02-28T19:16:24.112Z,10.30
2019-02-28T19:18:54.712Z,10.30
2019-02-28T19:21:27.473Z,10.40
2019-02-28T19:24:00.515Z,10.40
2019-02-28T19:26:31.993Z,10.40
2019-02-28T19:29:07.713Z,10.40
2019-02-28T19:31:57.894Z,10.40
2019-02-28T19:34:28.833Z,10.40
2019-02-28T19:37:03.554Z,10.50
2019-02-28T19:39:36.410Z,10.40
2019-02-28T19:42:10.594Z,10.40
2019-02-28T19:44:42.271Z,10.40
2019-02-28T19:47:12.876Z,10.40
2019-02-28T19:49:43.257Z,10.40
2019-02-28T19:52:13.294Z,10.50
2019-02-28T19:54:44.233Z,10.50
2019-02-28T19:57:16.146Z,10.50
2019-02-28T19:59:48.228Z,10.50
2019-02-28T20:02:20.633Z,10.60
2019-02-28T20:04:51.538Z,10.60
2019-02-28T20:07:22.875Z,10.60
2019-02-28T20:09:56.358Z,10.60
2019-02-28T20:12:28.305Z,10.60
2019-02-28T20:15:06.823Z,10.60
2019-02-28T20:17:37.441Z,10.50
2019-02-28T20:20:12.033Z,10.60
2019-02-28T20:22:43.073Z,10.50
2019-02-28T20:25:15.320Z,10.50
2019-02-28T20:27:46.593Z,10.50
2019-02-28T20:30:25.514Z,10.40
2019-02-28T20:33:08.448Z,10.40
2019-02-28T20:35:41.833Z,10.40
2019-02-28T20:38:15.953Z,10.30
2019-02-28T20:40:46.877Z,10.30
2019-02-28T20:43:21.304Z,10.30
2019-02-28T20:45:53.912Z,10.30
2019-02-28T20:48:29.074Z,10.30
2019-02-28T20:50:59.953Z,10.20
2019-02-28T20:53:30.714Z,10.30
2019-02-28T20:56:02.513Z,10.30
2019-02-28T20:58:32.789Z,10.30
2019-02-28T21:01:03.427Z,10.20
2019-02-28T21:03:36.632Z,10.20
2019-02-28T21:06:14.865Z,10.30
2019-02-28T21:08:46.985Z,10.20
2019-02-28T21:11:19.145Z,10.20
2019-02-28T21:13:56.465Z,10.20
2019-02-28T21:17:09.146Z,10.20
2019-02-28T21:19:31.504Z,10.30
2019-02-28T21:21:57.984Z,10.20
2019-02-28T21:24:35.584Z,10.10
2019-02-28T21:27:16.963Z,10.10
2019-02-28T21:29:50.126Z,10.00
2019-02-28T21:32:23.925Z,10.00
2019-02-28T21:35:02.982Z,10.00
2019-02-28T21:37:48.182Z,10.00
2019-02-28T21:40:24.558Z,9.90
2019-02-28T21:42:56.741Z,9.90
2019-02-28T21:48:43.239Z,9.90
2019-02-28T21:51:39.785Z,9.80
2019-02-28T21:54:35.575Z,9.80
2019-02-28T21:57:21.252Z,9.70
2019-02-28T21:59:58.606Z,9.60
2019-02-28T22:03:03.396Z,9.70
2019-02-28T22:09:14.480Z,9.50
2019-02-28T22:12:12.635Z,9.40
2019-02-28T22:15:22.374Z,9.50
2019-02-28T22:18:01.500Z,9.50
2019-02-28T22:20:50.893Z,9.40
2019-02-28T22:35:23.701Z,8.90
2019-02-28T22:43:58.492Z,8.70
2019-02-28T22:46:28.377Z,8.70
2019-02-28T22:48:58.259Z,8.60
2019-02-28T22:51:28.281Z,8.50
2019-02-28T22:53:59.797Z,8.50
2019-02-28T22:56:30.460Z,8.50
2019-02-28T22:59:00.474Z,8.40
2019-02-28T23:01:40.602Z,8.30
2019-02-28T23:04:12.150Z,8.30
2019-02-28T23:06:42.150Z,8.30
2019-02-28T23:09:12.091Z,8.30
2019-02-28T23:11:42.185Z,8.30
2019-02-28T23:14:12.113Z,8.20
2019-02-28T23:16:42.044Z,8.20
2019-02-28T23:19:12.788Z,8.20
2019-02-28T23:21:49.507Z,8.20
2019-02-28T23:24:25.976Z,8.20
2019-02-28T23:27:15.055Z,8.10
2019-02-28T23:29:51.724Z,8.10
2019-02-28T23:32:39.679Z,8.10
2019-02-28T23:35:12.617Z,8.10
2019-02-28T23:37:42.552Z,8.00
2019-02-28T23:40:12.400Z,8.00
2019-02-28T23:42:42.259Z,8.00
2019-02-28T23:45:12.113Z,7.90
2019-02-28T23:47:41.972Z,7.80
2019-02-28T23:50:11.938Z,7.70
2019-02-28T23:52:41.857Z,7.60
2019-02-28T23:55:11.700Z,7.60
2019-02-28T23:57:41.608Z,7.70
